Time;durP1;ratioP1;P1;durP2;ratioP2;P2;SDS_P1;SDS_P2;PMS_P1;PMS_P2;Temp;Humidity;BMP_temperature;BMP_pressure;BME280_temperature;BME280_humidity;BME280_pressure;Samples;Min_cycle;Max_cycle;Signal;HPM_P1;HPM_P2
2022/03/26 00:01:34;;;;;;;34.40;20.70;;;;;;;5.65;100.00;96219.81;5077728;28;20191;-56
2022/03/26 00:03:59;;;;;;;32.03;19.27;;;;;;;5.60;100.00;96222.75;5076969;28;20215;-56
2022/03/26 00:06:25;;;;;;;37.13;21.57;;;;;;;5.53;100.00;96233.41;5077261;28;20195;-56
2022/03/26 00:08:51;;;;;;;35.17;20.57;;;;;;;5.47;100.00;96229.44;5077029;28;20233;-56
2022/03/26 00:11:16;;;;;;;36.17;20.83;;;;;;;5.42;100.00;96221.53;5076911;28;20205;-60
2022/03/26 00:13:42;;;;;;;32.43;20.13;;;;;;;5.36;100.00;96222.97;5076958;28;20218;-62
2022/03/26 00:16:07;;;;;;;33.87;19.57;;;;;;;5.28;100.00;96226.63;5077204;28;20248;-62
2022/03/26 00:18:32;;;;;;;31.73;19.00;;;;;;;5.24;100.00;96221.09;5076948;28;20197;-62
2022/03/26 00:20:58;;;;;;;32.00;19.13;;;;;;;5.19;100.00;96223.28;5076849;28;20189;-62
2022/03/26 00:23:23;;;;;;;31.07;18.70;;;;;;;5.17;100.00;96229.03;5076737;28;20199;-61
2022/03/26 00:25:48;;;;;;;34.13;19.47;;;;;;;5.11;100.00;96222.34;5076754;28;20199;-61
2022/03/26 00:28:14;;;;;;;32.63;18.90;;;;;;;5.09;100.00;96224.59;5076684;28;20234;-55
2022/03/26 00:30:39;;;;;;;33.43;18.83;;;;;;;5.06;100.00;96224.50;5076854;28;20279;-51
2022/03/26 00:33:05;;;;;;;29.47;18.30;;;;;;;5.02;100.00;96226.31;5077276;28;20188;-54
2022/03/26 00:35:31;;;;;;;34.33;18.97;;;;;;;4.98;100.00;96217.31;5076911;28;20189;-55
2022/03/26 00:37:56;;;;;;;31.57;17.90;;;;;;;4.96;100.00;96208.78;5076832;28;20184;-56
2022/03/26 00:40:21;;;;;;;34.20;18.53;;;;;;;4.91;100.00;96220.63;5076435;28;20238;-56
2022/03/26 00:42:47;;;;;;;30.43;18.20;;;;;;;4.89;100.00;96219.41;5076464;28;20206;-56
2022/03/26 00:45:12;;;;;;;32.40;17.50;;;;;;;4.85;100.00;96215.81;5076343;28;20173;-56
2022/03/26 00:47:38;;;;;;;30.90;17.33;;;;;;;4.83;100.00;96215.38;5076394;28;20226;-56
2022/03/26 00:50:04;;;;;;;29.23;18.23;;;;;;;4.82;100.00;96219.22;5076748;28;20201;-62
2022/03/26 00:52:30;;;;;;;28.10;17.53;;;;;;;4.78;100.00;96207.50;5075988;28;20195;-62
2022/03/26 00:54:55;;;;;;;32.77;18.17;;;;;;;4.75;100.00;96210.91;5076276;28;20197;-63
2022/03/26 00:57:21;;;;;;;30.73;18.53;;;;;;;4.70;100.00;96216.56;5076329;28;20207;-64
2022/03/26 00:59:46;;;;;;;28.87;18.67;;;;;;;4.68;100.00;96216.13;5076192;28;20291;-60
2022/03/26 01:02:12;;;;;;;30.87;18.43;;;;;;;4.64;100.00;96217.94;5076135;28;20244;-61
2022/03/26 01:04:38;;;;;;;31.17;19.17;;;;;;;4.62;100.00;96220.22;5076041;28;20261;-61
2022/03/26 01:07:04;;;;;;;28.57;18.00;;;;;;;4.63;100.00;96216.38;5076199;28;20220;-61
2022/03/26 01:09:30;;;;;;;29.83;17.47;;;;;;;4.59;100.00;96227.09;5076140;28;20197;-52
2022/03/26 01:11:55;;;;;;;30.40;18.93;;;;;;;4.57;100.00;96228.56;5076256;28;20208;-52
2022/03/26 01:14:22;;;;;;;31.87;18.40;;;;;;;4.52;100.00;96236.94;5075954;28;20195;-55
2022/03/26 01:16:48;;;;;;;34.80;19.30;;;;;;;4.55;100.00;96237.00;5076472;28;20182;-54
2022/03/26 01:19:15;;;;;;;32.57;18.93;;;;;;;4.59;100.00;96226.31;5076672;28;20208;-54
2022/03/26 01:21:40;;;;;;;31.67;19.73;;;;;;;4.63;100.00;96238.00;5075917;28;20292;-55
2022/03/26 01:24:06;;;;;;;30.23;18.87;;;;;;;4.59;100.00;96229.78;5076670;28;20217;-55
2022/03/26 01:26:31;;;;;;;36.47;20.83;;;;;;;4.60;100.00;96227.88;5075882;28;20185;-60
2022/03/26 01:28:57;;;;;;;36.43;20.87;;;;;;;4.60;100.00;96228.69;5076339;28;20192;-70
2022/03/26 01:31:22;;;;;;;34.97;21.23;;;;;;;4.63;100.00;96227.19;5093629;28;20208;-74
2022/03/26 01:33:49;;;;;;;35.90;20.30;;;;;;;4.65;100.00;96230.31;5075706;28;20596;-68
2022/03/26 01:36:15;;;;;;;38.03;20.17;;;;;;;4.65;100.00;96224.91;5075509;28;20195;-69
2022/03/26 01:38:41;;;;;;;31.17;19.97;;;;;;;4.67;100.00;96222.66;5075759;28;20190;-69
2022/03/26 01:41:06;;;;;;;32.27;19.33;;;;;;;4.65;100.00;96225.72;5075619;28;20242;-69
2022/03/26 01:43:32;;;;;;;31.40;19.77;;;;;;;4.67;100.00;96223.47;5075916;28;20235;-50
2022/03/26 01:45:57;;;;;;;35.57;19.40;;;;;;;4.67;100.00;96228.06;5075752;28;20189;-55
2022/03/26 01:48:22;;;;;;;33.97;19.10;;;;;;;4.63;100.00;96227.19;5075566;28;20193;-54
2022/03/26 01:50:48;;;;;;;36.37;21.13;;;;;;;4.61;100.00;96229.44;5075646;28;20261;-55
2022/03/26 01:53:13;;;;;;;36.17;20.40;;;;;;;4.61;100.00;96218.63;5075967;28;20188;-54
2022/03/26 01:55:39;;;;;;;35.23;21.57;;;;;;;4.58;100.00;96222.81;5075657;28;20184;-56
2022/03/26 01:58:04;;;;;;;32.73;19.57;;;;;;;4.57;100.00;96217.75;5075458;28;20192;-55
2022/03/26 02:00:30;;;;;;;33.40;18.83;;;;;;;4.53;100.00;96217.66;5075947;28;20192;-53
2022/03/26 02:02:56;;;;;;;40.13;22.27;;;;;;;4.52;100.00;96220.69;5075451;28;20233;-62
2022/03/26 02:05:22;;;;;;;36.47;21.90;;;;;;;4.51;100.00;96216.44;5075234;28;20276;-61
2022/03/26 02:07:49;;;;;;;37.23;21.97;;;;;;;4.52;100.00;96215.28;5075456;28;20208;-61
2022/03/26 02:10:18;;;;;;;37.37;22.00;;;;;;;4.56;100.00;96216.19;5075527;28;20204;-61
2022/03/26 02:12:45;;;;;;;38.87;22.67;;;;;;;4.59;100.00;96212.78;5075244;28;20187;-61
2022/03/26 02:15:11;;;;;;;38.43;22.30;;;;;;;4.64;100.00;96217.94;5075219;28;20175;-62
2022/03/26 02:17:38;;;;;;;45.00;23.93;;;;;;;4.67;100.00;96218.06;5078209;28;20203;-62
2022/03/26 02:20:06;;;;;;;43.27;23.83;;;;;;;4.71;100.00;96220.84;5078953;28;20186;-60
2022/03/26 02:22:33;;;;;;;41.47;21.93;;;;;;;4.73;100.00;96215.88;5078653;28;20275;-59
2022/03/26 02:24:58;;;;;;;39.83;23.67;;;;;;;4.71;100.00;96212.72;5096322;28;20660;-59
2022/03/26 02:27:25;;;;;;;41.23;21.60;;;;;;;4.70;100.00;96224.69;5096410;28;20213;-59
2022/03/26 02:29:51;;;;;;;36.33;22.10;;;;;;;4.63;100.00;96211.75;5078534;28;20185;-59
2022/03/26 02:32:21;;;;;;;34.73;20.70;;;;;;;4.55;100.00;96214.63;5078642;28;20181;-59
2022/03/26 02:34:47;;;;;;;32.77;19.37;;;;;;;4.42;100.00;96218.47;5078480;28;20250;-59
2022/03/26 02:37:13;;;;;;;32.30;18.00;;;;;;;4.30;100.00;96218.53;5078358;28;20281;-54
2022/03/26 02:39:38;;;;;;;41.23;19.87;;;;;;;4.19;100.00;96212.78;5095728;28;20225;-59
2022/03/26 02:42:04;;;;;;;37.23;20.17;;;;;;;4.13;100.00;96210.69;5078657;28;20201;-53
2022/03/26 02:44:29;;;;;;;35.13;19.73;;;;;;;4.04;100.00;96221.63;5078028;28;20172;-56
2022/03/26 02:46:55;;;;;;;31.17;18.57;;;;;;;3.95;100.00;96218.28;5078311;28;20193;-54
2022/03/26 02:49:20;;;;;;;29.67;18.57;;;;;;;3.85;100.00;96228.75;5078909;28;20191;-55
2022/03/26 02:51:45;;;;;;;35.10;20.77;;;;;;;3.80;100.00;96224.38;5078594;28;20205;-55
2022/03/26 02:54:18;;;;;;;35.03;19.93;;;;;;;3.75;100.00;96223.81;5078297;28;20199;-55
2022/03/26 02:56:45;;;;;;;33.73;19.03;;;;;;;3.69;100.00;96225.94;5078812;28;20181;-60
2022/03/26 02:59:11;;;;;;;30.30;17.60;;;;;;;3.65;100.00;96224.25;5077894;28;20283;-54
2022/03/26 03:01:37;;;;;;;28.30;17.50;;;;;;;3.58;100.00;96219.44;5078342;28;20281;-55
2022/03/26 03:04:03;;;;;;;31.50;18.47;;;;;;;3.57;100.00;96222.47;5077901;28;20286;-54
2022/03/26 03:06:28;;;;;;;32.27;18.60;;;;;;;3.53;100.00;96228.53;5078379;28;20184;-53
2022/03/26 03:08:54;;;;;;;31.33;17.83;;;;;;;3.49;100.00;96230.34;5077802;28;20189;-52
2022/03/26 03:11:19;;;;;;;31.83;17.93;;;;;;;3.46;100.00;96228.31;5077826;28;20204;-55
2022/03/26 03:13:44;;;;;;;31.17;18.20;;;;;;;3.42;100.00;96242.81;5078337;28;20187;-51
2022/03/26 03:16:10;;;;;;;27.13;17.90;;;;;;;3.37;100.00;96237.63;5077979;28;20184;-62
2022/03/26 03:18:35;;;;;;;30.57;18.00;;;;;;;3.33;100.00;96242.94;5077892;28;20184;-58
2022/03/26 03:21:00;;;;;;;32.67;19.27;;;;;;;3.30;100.00;96246.28;5077718;28;20521;-58
2022/03/26 03:23:25;;;;;;;28.63;17.93;;;;;;;3.28;100.00;96247.75;5077619;28;20585;-58
2022/03/26 03:25:51;;;;;;;36.37;20.17;;;;;;;3.25;100.00;96243.78;5077781;28;20216;-58
2022/03/26 03:28:16;;;;;;;31.13;17.03;;;;;;;3.19;100.00;96237.06;5077291;28;20189;-58
2022/03/26 03:30:41;;;;;;;30.23;17.10;;;;;;;3.10;100.00;96241.75;5095398;28;20208;-58
2022/03/26 03:33:07;;;;;;;28.93;16.90;;;;;;;3.07;100.00;96253.22;5077465;28;20185;-49
2022/03/26 03:35:32;;;;;;;29.30;16.53;;;;;;;3.02;100.00;96250.72;5077515;28;20216;-46
2022/03/26 03:37:57;;;;;;;28.23;16.97;;;;;;;2.96;100.00;96257.44;5077872;28;20219;-48
2022/03/26 03:40:23;;;;;;;29.97;16.73;;;;;;;2.86;100.00;96252.50;5077939;28;20200;-45
2022/03/26 03:42:48;;;;;;;35.93;17.70;;;;;;;2.83;100.00;96247.75;5077574;28;20188;-45
2022/03/26 03:45:15;;;;;;;25.87;16.50;;;;;;;2.80;100.00;96248.41;5076950;28;20256;-46
2022/03/26 03:47:40;;;;;;;25.80;16.60;;;;;;;2.76;100.00;96244.03;5076906;28;20217;-47
2022/03/26 03:50:06;;;;;;;28.10;16.30;;;;;;;2.70;100.00;96248.84;5077085;28;20287;-47
2022/03/26 03:52:31;;;;;;;26.67;16.00;;;;;;;2.66;100.00;96242.53;5095140;28;20552;-55
2022/03/26 03:54:57;;;;;;;31.77;17.67;;;;;;;2.66;100.00;96244.47;5077680;28;20275;-77
2022/03/26 03:57:22;;;;;;;29.33;16.73;;;;;;;2.63;100.00;96237.78;5077004;28;20185;-79
2022/03/26 03:59:47;;;;;;;26.07;16.37;;;;;;;2.61;100.00;96240.06;5077420;28;20240;-80
2022/03/26 04:02:13;;;;;;;26.50;16.53;;;;;;;2.59;100.00;96231.50;5077269;28;20248;-79
2022/03/26 04:04:40;;;;;;;29.87;16.13;;;;;;;2.55;100.00;96233.28;5076764;28;20195;-80
2022/03/26 04:07:07;;;;;;;26.57;16.67;;;;;;;2.56;100.00;96232.19;5077079;28;20191;-75
2022/03/26 04:09:33;;;;;;;28.93;16.83;;;;;;;2.55;100.00;96235.19;5077001;28;20188;-59
2022/03/26 04:11:58;;;;;;;26.53;16.47;;;;;;;2.53;100.00;96238.22;5077237;28;20211;-56
2022/03/26 04:14:23;;;;;;;28.23;16.13;;;;;;;2.46;100.00;96232.59;5076417;28;20226;-53
2022/03/26 04:16:48;;;;;;;27.63;16.90;;;;;;;2.39;100.00;96231.53;5077126;28;20267;-54
2022/03/26 04:19:14;;;;;;;31.27;16.80;;;;;;;2.35;100.00;96230.59;5076611;28;20275;-52
2022/03/26 04:21:39;;;;;;;28.47;17.70;;;;;;;2.32;100.00;96233.97;5076894;28;20264;-51
2022/03/26 04:24:05;;;;;;;28.67;17.10;;;;;;;2.32;100.00;96237.44;5076657;28;20287;-52
2022/03/26 04:26:30;;;;;;;28.23;16.30;;;;;;;2.34;100.00;96232.50;5076645;28;20224;-54
2022/03/26 04:28:56;;;;;;;34.73;18.63;;;;;;;2.33;100.00;96239.03;5076624;28;20263;-53
2022/03/26 04:31:21;;;;;;;25.97;16.50;;;;;;;2.31;100.00;96238.56;5076492;28;20253;-52
2022/03/26 04:33:46;;;;;;;28.83;16.80;;;;;;;2.30;100.00;96238.91;5076292;28;20290;-51
2022/03/26 04:36:12;;;;;;;28.67;16.83;;;;;;;2.30;100.00;96247.75;5077052;28;20187;-53
2022/03/26 04:38:38;;;;;;;27.20;15.37;;;;;;;2.28;100.00;96247.31;5075686;28;20237;-53
2022/03/26 04:41:03;;;;;;;25.10;15.67;;;;;;;2.24;100.00;96251.78;5076697;28;20213;-52
2022/03/26 04:43:29;;;;;;;28.43;16.43;;;;;;;2.24;100.00;96251.78;5076703;28;20191;-54
2022/03/26 04:45:54;;;;;;;31.27;15.93;;;;;;;2.20;100.00;96242.78;5076099;28;20275;-55
2022/03/26 04:48:19;;;;;;;33.63;17.20;;;;;;;2.13;100.00;96247.91;5076336;28;20178;-62
2022/03/26 04:50:45;;;;;;;28.63;17.27;;;;;;;2.11;100.00;96247.44;5076209;28;20220;-59
2022/03/26 04:53:10;;;;;;;29.57;16.03;;;;;;;2.11;100.00;96260.13;5076689;28;20192;-62
2022/03/26 04:55:35;;;;;;;25.30;16.03;;;;;;;2.06;100.00;96255.72;5076214;28;20283;-61
2022/03/26 04:58:01;;;;;;;28.30;17.43;;;;;;;2.01;100.00;96247.81;5076712;28;20184;-62
2022/03/26 05:00:26;;;;;;;25.03;15.93;;;;;;;1.98;100.00;96248.50;5076218;28;20192;-61
2022/03/26 05:02:52;;;;;;;32.03;16.83;;;;;;;1.98;100.00;96237.72;5075904;28;20203;-61
2022/03/26 05:05:17;;;;;;;27.73;17.20;;;;;;;2.01;100.00;96238.97;5076471;28;20195;-53
2022/03/26 05:07:45;;;;;;;27.60;16.90;;;;;;;2.00;100.00;96238.16;5075937;28;20274;-54
2022/03/26 05:10:22;;;;;;;26.57;17.10;;;;;;;2.04;100.00;96247.16;5076228;28;20199;-54
2022/03/26 05:12:49;;;;;;;35.07;17.03;;;;;;;2.02;100.00;96254.00;5076351;28;20262;-51
2022/03/26 05:15:16;;;;;;;29.10;17.10;;;;;;;2.03;100.00;96255.56;5075941;28;20191;-52
2022/03/26 05:17:42;;;;;;;27.27;16.93;;;;;;;2.11;100.00;96252.81;5075598;28;20256;-52
2022/03/26 05:20:08;;;;;;;33.13;18.97;;;;;;;2.24;100.00;96246.41;5075942;28;20261;-51
2022/03/26 05:22:34;;;;;;;34.87;20.63;;;;;;;2.44;100.00;96248.28;5075864;28;20192;-57
2022/03/26 05:25:00;;;;;;;34.07;19.27;;;;;;;2.69;100.00;96259.94;5075763;28;20187;-75
2022/03/26 05:27:26;;;;;;;29.77;17.17;;;;;;;2.88;100.00;96250.25;5076350;28;20181;-60
2022/03/26 05:29:51;;;;;;;33.97;18.07;;;;;;;3.14;100.00;96253.44;5075698;28;20192;-61
2022/03/26 05:32:16;;;;;;;29.77;17.10;;;;;;;3.37;100.00;96261.94;5075605;28;20208;-61
2022/03/26 05:34:42;;;;;;;33.37;18.90;;;;;;;3.66;100.00;96261.72;5075715;28;20181;-61
2022/03/26 05:37:08;;;;;;;29.13;18.07;;;;;;;4.03;100.00;96267.88;5076081;28;20181;-60
2022/03/26 05:39:33;;;;;;;31.90;18.73;;;;;;;4.33;100.00;96266.50;5075984;28;20253;-60
2022/03/26 05:41:59;;;;;;;40.73;21.27;;;;;;;4.77;100.00;96265.47;5075376;28;20228;-61
2022/03/26 05:44:25;;;;;;;28.30;17.97;;;;;;;5.31;100.00;96263.81;5075478;28;20193;-50
2022/03/26 05:46:50;;;;;;;30.50;18.47;;;;;;;5.64;100.00;96267.78;5075443;28;20303;-54
2022/03/26 05:49:16;;;;;;;30.73;19.17;;;;;;;5.83;100.00;96281.44;5075890;28;20278;-58
2022/03/26 05:51:42;;;;;;;34.50;19.60;;;;;;;6.01;100.00;96277.22;5078679;28;20217;-55
2022/03/26 05:54:08;;;;;;;30.37;18.60;;;;;;;6.28;100.00;96281.72;5078968;28;20226;-55
2022/03/26 05:56:36;;;;;;;28.27;18.80;;;;;;;6.56;100.00;96276.13;5078881;28;20214;-54
2022/03/26 05:59:11;;;;;;;28.10;17.87;;;;;;;7.16;100.00;96271.91;5079303;28;20226;-62
2022/03/26 06:01:36;;;;;;;30.20;18.57;;;;;;;7.45;100.00;96274.78;5079553;28;20188;-49
2022/03/26 06:04:02;;;;;;;29.57;18.10;;;;;;;7.64;100.00;96277.44;5078834;28;20270;-57
2022/03/26 06:06:28;;;;;;;29.47;18.83;;;;;;;7.85;100.00;96283.25;5079292;28;20190;-57
2022/03/26 06:08:53;;;;;;;26.37;19.07;;;;;;;8.03;100.00;96284.31;5078800;28;20211;-57
2022/03/26 06:11:19;;;;;;;30.70;18.43;;;;;;;8.46;99.61;96289.31;5078756;28;20307;-54
2022/03/26 06:13:44;;;;;;;26.17;18.70;;;;;;;9.13;94.88;96293.69;5078893;28;20202;-58
2022/03/26 06:16:10;;;;;;;27.07;18.23;;;;;;;9.81;88.73;96301.41;5078800;28;20215;-57
2022/03/26 06:18:35;;;;;;;26.47;19.07;;;;;;;10.34;82.83;96302.66;5079528;28;20180;-56
2022/03/26 06:21:01;;;;;;;30.27;19.07;;;;;;;10.80;79.23;96302.97;5078406;28;20227;-57
2022/03/26 06:23:26;;;;;;;24.77;18.90;;;;;;;10.68;78.10;96301.34;5078871;28;20180;-55
2022/03/26 06:25:52;;;;;;;27.10;19.03;;;;;;;10.56;79.06;96298.91;5079352;28;20192;-57
2022/03/26 06:28:19;;;;;;;25.63;19.47;;;;;;;11.12;76.85;96298.44;5078717;28;20193;-58
2022/03/26 06:30:46;;;;;;;24.97;19.23;;;;;;;11.68;73.19;96293.19;5078454;28;20211;-57
2022/03/26 06:33:12;;;;;;;29.23;19.30;;;;;;;12.42;70.60;96288.56;5078409;28;20252;-57
2022/03/26 06:35:38;;;;;;;28.03;19.40;;;;;;;13.00;67.19;96294.31;5078490;28;20196;-57
2022/03/26 06:38:03;;;;;;;26.60;20.10;;;;;;;13.01;65.02;96295.91;5078596;28;20188;-58
2022/03/26 06:40:28;;;;;;;30.63;20.73;;;;;;;12.74;64.85;96294.75;5078911;28;20279;-58
2022/03/26 06:42:54;;;;;;;31.47;22.47;;;;;;;12.86;65.11;96302.56;5078256;28;20192;-58
2022/03/26 06:45:19;;;;;;;29.17;22.40;;;;;;;13.01;65.11;96304.91;5078783;28;20255;-58
2022/03/26 06:47:45;;;;;;;32.07;22.97;;;;;;;13.16;64.37;96305.66;5078389;28;20192;-58
2022/03/26 06:50:10;;;;;;;30.07;22.10;;;;;;;13.77;61.81;96302.22;5078006;28;20200;-58
2022/03/26 06:52:35;;;;;;;28.67;22.67;;;;;;;14.44;58.26;96308.06;5078201;28;20197;-58
2022/03/26 06:55:02;;;;;;;32.20;23.27;;;;;;;15.08;55.73;96303.50;5078122;28;20206;-65
2022/03/26 06:57:27;;;;;;;34.37;24.57;;;;;;;15.34;53.98;96305.56;5077957;28;20181;-75
2022/03/26 06:59:53;;;;;;;34.27;24.90;;;;;;;15.93;52.03;96304.06;5078400;28;20215;-79
2022/03/26 07:02:18;;;;;;;33.77;25.17;;;;;;;16.36;50.02;96313.22;5076992;28;20200;-77
2022/03/26 07:04:43;;;;;;;33.53;25.17;;;;;;;17.09;47.57;96312.41;5078055;28;20191;-76
2022/03/26 07:07:12;;;;;;;36.53;26.77;;;;;;;17.51;45.33;96314.38;5077976;28;20204;-76
2022/03/26 07:09:37;;;;;;;33.90;26.50;;;;;;;17.11;46.17;96307.25;5077890;28;20279;-75
2022/03/26 07:12:02;;;;;;;33.73;26.13;;;;;;;17.65;44.28;96303.03;5077775;28;20265;-75
2022/03/26 07:14:28;;;;;;;39.27;26.67;;;;;;;17.91;44.07;96310.34;5077729;28;20220;-58
2022/03/26 07:16:53;;;;;;;33.80;27.30;;;;;;;18.04;42.77;96311.28;5077647;28;20180;-57
2022/03/26 07:19:18;;;;;;;38.90;28.13;;;;;;;18.21;42.86;96318.41;5077608;28;20185;-59
2022/03/26 07:21:44;;;;;;;33.97;28.67;;;;;;;18.04;41.71;96316.81;5077724;28;20293;-59
2022/03/26 07:24:09;;;;;;;36.93;29.47;;;;;;;17.60;41.45;96322.88;5077478;28;20306;-59
2022/03/26 07:26:35;;;;;;;41.20;28.63;;;;;;;17.84;41.99;96319.59;5077560;28;20188;-59
2022/03/26 07:29:00;;;;;;;37.40;28.77;;;;;;;16.98;41.75;96322.88;5077333;28;20203;-58
2022/03/26 07:31:25;;;;;;;33.70;28.33;;;;;;;17.20;43.06;96327.59;5077881;28;20253;-61
2022/03/26 07:33:51;;;;;;;36.20;28.90;;;;;;;17.13;42.80;96332.44;5077687;28;20267;-61
2022/03/26 07:36:16;;;;;;;35.60;28.43;;;;;;;17.00;43.25;96331.50;5077443;28;20192;-51
2022/03/26 07:38:42;;;;;;;37.20;28.10;;;;;;;17.50;43.79;96329.38;5077572;28;20219;-54
2022/03/26 07:41:08;;;;;;;38.40;30.00;;;;;;;18.47;41.80;96331.25;5077425;28;20191;-51
2022/03/26 07:43:34;;;;;;;36.60;29.03;;;;;;;18.66;40.28;96324.84;5077316;28;20271;-54
2022/03/26 07:45:59;;;;;;;37.73;29.40;;;;;;;18.63;40.16;96326.50;5077281;28;20188;-49
2022/03/26 07:48:25;;;;;;;33.27;28.17;;;;;;;18.57;40.53;96321.91;5077741;28;20203;-50
2022/03/26 07:50:50;;;;;;;38.60;28.87;;;;;;;18.98;40.32;96320.06;5077036;28;20212;-59
2022/03/26 07:53:17;;;;;;;34.90;27.73;;;;;;;19.35;39.07;96321.50;5077508;28;20244;-58
2022/03/26 07:55:42;;;;;;;33.70;26.90;;;;;;;19.10;40.86;96321.34;5095035;28;20188;-58
2022/03/26 07:58:08;;;;;;;36.47;29.00;;;;;;;19.24;39.97;96326.53;5077458;28;20209;-59
2022/03/26 08:00:33;;;;;;;35.70;28.77;;;;;;;19.52;39.41;96322.22;5095114;28;20241;-59
2022/03/26 08:02:58;;;;;;;36.47;28.80;;;;;;;20.81;36.64;96317.47;5076810;28;20204;-59
2022/03/26 08:05:24;;;;;;;32.72;27.40;;;;;;;20.51;36.86;96318.88;5076874;28;20207;-58
2022/03/26 08:07:49;;;;;;;35.10;28.08;;;;;;;20.78;35.09;96323.94;5077468;28;20247;-64
2022/03/26 08:10:15;;;;;;;34.92;27.98;;;;;;;21.25;35.12;96317.19;5077045;28;20214;-59
2022/03/26 08:12:40;;;;;;;33.22;28.15;;;;;;;20.72;35.63;96332.03;5076656;28;20233;-74
2022/03/26 08:15:06;;;;;;;36.95;29.25;;;;;;;21.75;35.35;96328.09;5075868;28;20188;-75
2022/03/26 08:17:31;;;;;;;34.92;28.90;;;;;;;21.84;33.89;96322.63;5094442;28;20210;-71
2022/03/26 08:19:57;;;;;;;36.50;28.45;;;;;;;21.97;34.18;96320.50;5076793;28;20180;-69
2022/03/26 08:22:23;;;;;;;33.75;28.52;;;;;;;22.00;33.42;96322.41;5076367;28;20192;-77
2022/03/26 08:24:48;;;;;;;31.88;27.65;;;;;;;22.68;32.61;96320.59;5076784;28;20192;-68
2022/03/26 08:27:14;;;;;;;32.80;28.88;;;;;;;22.91;31.12;96322.81;5076603;28;20184;-60
2022/03/26 08:29:39;;;;;;;33.65;28.83;;;;;;;21.78;32.94;96332.00;5076828;28;20229;-59
2022/03/26 08:32:07;;;;;;;32.70;28.58;;;;;;;22.34;31.98;96324.28;5076550;28;20196;-58
2022/03/26 08:34:32;;;;;;;34.22;28.23;;;;;;;22.22;32.88;96328.72;5077411;28;20258;-58
2022/03/26 08:36:58;;;;;;;33.15;29.63;;;;;;;21.44;34.17;96335.56;5076437;28;20303;-58
2022/03/26 08:39:24;;;;;;;32.42;28.08;;;;;;;20.99;33.69;96337.94;5076469;28;20176;-56
2022/03/26 08:41:49;;;;;;;39.65;29.70;;;;;;;21.68;33.47;96336.66;5076452;28;20181;-58
2022/03/26 08:44:15;;;;;;;36.83;29.70;;;;;;;20.72;34.18;96348.69;5076705;28;20198;-58
2022/03/26 08:46:41;;;;;;;33.17;28.38;;;;;;;20.95;34.29;96348.38;5076510;28;20184;-76
2022/03/26 08:49:06;;;;;;;33.65;28.55;;;;;;;20.58;34.96;96346.38;5076451;28;20188;-56
2022/03/26 08:51:31;;;;;;;34.95;27.52;;;;;;;19.41;36.13;96352.97;5076108;28;20208;-56
2022/03/26 08:53:57;;;;;;;36.85;29.40;;;;;;;18.80;37.14;96352.19;5076611;28;20221;-57
2022/03/26 08:56:22;;;;;;;37.27;29.63;;;;;;;20.10;35.82;96343.91;5076089;28;20602;-55
2022/03/26 08:58:48;;;;;;;35.50;29.37;;;;;;;18.85;37.49;96348.88;5076551;28;20181;-56
2022/03/26 09:01:14;;;;;;;38.43;29.17;;;;;;;20.14;35.98;96344.56;5076381;28;20184;-56
2022/03/26 09:03:40;;;;;;;37.47;29.03;;;;;;;18.77;37.21;96364.13;5076443;28;20208;-52
2022/03/26 09:06:07;;;;;;;36.43;28.53;;;;;;;18.26;40.04;96351.06;5094060;28;20188;-62
2022/03/26 09:08:33;;;;;;;34.23;27.97;;;;;;;19.83;36.98;96357.38;5076591;28;20203;-60
2022/03/26 09:10:58;;;;;;;38.23;29.07;;;;;;;20.57;36.16;96344.81;5093866;28;20208;-60
2022/03/26 09:13:24;;;;;;;37.93;28.23;;;;;;;20.07;36.78;96341.97;5075875;28;20238;-61
2022/03/26 09:15:50;;;;;;;38.60;28.70;;;;;;;20.15;35.51;96346.16;5075769;28;20188;-61
2022/03/26 09:18:15;;;;;;;37.73;29.27;;;;;;;20.12;36.01;96344.25;5093479;28;20180;-62
2022/03/26 09:20:41;;;;;;;37.47;28.13;;;;;;;18.84;37.55;96352.88;5075921;28;20187;-61
2022/03/26 09:23:06;;;;;;;36.80;28.83;;;;;;;20.05;37.35;96352.75;5075670;28;20191;-53
2022/03/26 09:25:33;;;;;;;41.57;31.03;;;;;;;19.57;36.25;96350.19;5079194;28;20564;-80
2022/03/26 09:27:59;;;;;;;41.70;29.97;;;;;;;20.22;36.29;96339.59;5081958;28;20281;-77
2022/03/26 09:30:24;;;;;;;39.20;29.07;;;;;;;20.66;35.71;96344.16;5082330;28;20180;-73
2022/03/26 09:32:49;;;;;;;40.93;31.03;;;;;;;20.65;34.93;96340.59;5082399;28;20184;-77
2022/03/26 09:35:15;;;;;;;44.03;31.23;;;;;;;20.16;35.71;96342.16;5082434;28;20596;-83
2022/03/26 09:37:41;;;;;;;40.97;30.00;;;;;;;20.50;34.97;96336.72;5082758;28;20565;-70
2022/03/26 09:40:08;;;;;;;37.43;30.07;;;;;;;20.81;34.78;96340.50;5082623;28;20275;-56
2022/03/26 09:42:36;;;;;;;38.27;29.27;;;;;;;19.19;35.31;96349.97;5082095;28;20184;-61
2022/03/26 09:45:05;;;;;;;37.40;28.47;;;;;;;18.99;36.27;96343.00;5082379;28;20188;-75
2022/03/26 09:47:31;;;;;;;37.77;29.20;;;;;;;19.28;37.31;96338.31;5082053;28;20181;-71
2022/03/26 09:49:56;;;;;;;37.70;29.23;;;;;;;20.64;35.25;96339.06;5082809;28;20693;-77
2022/03/26 09:52:22;;;;;;;37.80;28.63;;;;;;;20.85;35.00;96324.47;5082385;28;20234;-77
2022/03/26 09:54:48;;;;;;;42.47;28.87;;;;;;;20.29;36.02;96340.16;5082678;28;20283;-77
2022/03/26 09:57:13;;;;;;;41.50;29.23;;;;;;;20.20;35.01;96337.28;5081987;28;20279;-77
2022/03/26 09:59:38;;;;;;;43.17;30.20;;;;;;;19.62;36.68;96335.78;5082355;28;20180;-60
2022/03/26 10:02:04;;;;;;;35.47;27.53;;;;;;;19.20;37.69;96343.22;5082095;28;20199;-79
2022/03/26 10:04:43;;;;;;;39.30;29.23;;;;;;;19.54;36.90;96339.97;5082226;28;20180;-78
2022/03/26 10:07:08;;;;;;;40.47;29.30;;;;;;;21.04;35.47;96326.25;5082135;28;20252;-79
2022/03/26 10:09:37;;;;;;;40.90;30.17;;;;;;;20.76;35.29;96324.38;5082226;28;20545;-78
2022/03/26 10:12:06;;;;;;;39.20;29.03;;;;;;;22.03;33.54;96327.06;5081911;28;20208;-78
2022/03/26 10:14:50;;;;;;;42.43;30.43;;;;;;;21.03;35.20;96327.47;5081692;28;20199;-78
2022/03/26 10:17:21;;;;;;;39.33;30.57;;;;;;;20.65;34.93;96323.94;5081977;28;20200;-61
2022/03/26 10:20:07;;;;;;;40.77;30.63;;;;;;;20.29;35.91;96329.03;5082020;28;20246;-57
2022/03/26 10:22:40;;;;;;;40.67;30.90;;;;;;;21.07;35.32;96321.78;5082088;28;20198;-56
2022/03/26 10:25:10;;;;;;;38.60;30.23;;;;;;;21.28;34.58;96310.72;5081656;28;20279;-58
2022/03/26 10:27:45;;;;;;;39.77;30.00;;;;;;;21.68;33.16;96300.50;5082070;28;20196;-56
2022/03/26 10:30:13;;;;;;;40.23;29.53;;;;;;;21.12;35.03;96307.34;5081753;28;20183;-56
2022/03/26 10:32:43;;;;;;;39.30;29.53;;;;;;;19.63;36.01;96323.47;5081677;28;20212;-57
2022/03/26 10:35:08;;;;;;;40.00;29.90;;;;;;;20.11;36.39;96323.28;5081671;28;20195;-58
2022/03/26 10:37:48;;;;;;;40.90;30.67;;;;;;;21.08;34.79;96306.66;5078258;28;20192;-64
2022/03/26 10:40:29;;;;;;;38.20;28.87;;;;;;;21.34;34.75;96303.34;5078263;28;20192;-57
2022/03/26 10:42:59;;;;;;;47.67;31.10;;;;;;;22.21;33.79;96299.31;5078448;28;20183;-57
2022/03/26 10:45:26;;;;;;;39.27;31.07;;;;;;;23.11;32.89;96298.06;5096092;28;20189;-57
2022/03/26 10:47:57;;;;;;;36.30;29.43;;;;;;;21.71;33.42;96299.66;5078322;28;20699;-56
2022/03/26 10:50:25;;;;;;;41.07;29.77;;;;;;;22.30;33.00;96299.34;5078147;28;20275;-56
2022/03/26 10:52:55;;;;;;;37.80;28.00;;;;;;;21.83;32.85;96296.03;5078739;28;20193;-57
2022/03/26 10:55:21;;;;;;;35.80;27.53;;;;;;;21.79;32.80;96292.63;5077986;28;20236;-57
2022/03/26 10:57:48;;;;;;;37.30;27.47;;;;;;;21.74;31.96;96298.75;5077817;28;20187;-56
2022/03/26 11:00:14;;;;;;;39.57;28.07;;;;;;;20.79;33.60;96295.72;5077843;28;20188;-57
2022/03/26 11:02:43;;;;;;;37.57;28.07;;;;;;;20.15;34.24;96299.00;5077990;28;20693;-57
2022/03/26 11:05:10;;;;;;;37.00;27.60;;;;;;;20.46;33.94;96294.41;5077731;28;20298;-58
2022/03/26 11:07:37;;;;;;;40.67;27.67;;;;;;;21.14;33.97;96291.78;5078110;28;20177;-56
2022/03/26 11:10:08;;;;;;;37.80;28.60;;;;;;;21.64;33.01;96283.19;5077869;28;20185;-55
2022/03/26 11:12:36;;;;;;;38.63;27.63;;;;;;;21.54;32.72;96284.38;5095563;28;20253;-58